Time;durP1;ratioP1;P1;durP2;ratioP2;P2;SDS_P1;SDS_P2;PMS_P1;PMS_P2;Temp;Humidity;BMP_temperature;BMP_pressure;BME280_temperature;BME280_humidity;BME280_pressure;Samples;Min_cycle;Max_cycle;Signal;HPM_P1;HPM_P2
2023/05/05 00:00:33;;;;;;;;;;;15.70;53.70;;;;;;5076899;28;19928;-67
2023/05/05 00:02:58;;;;;;;;;;;15.70;53.70;;;;;;5076749;28;19924;-67
2023/05/05 00:05:24;;;;;;;;;;;15.70;53.70;;;;;;5079374;28;19962;-67
2023/05/05 00:07:49;;;;;;;;;;;15.70;53.70;;;;;;5056399;28;19986;-67
2023/05/05 00:10:15;;;;;;;;;;;15.70;53.70;;;;;;5074809;28;19925;-67
2023/05/05 00:12:41;;;;;;;;;;;15.70;53.70;;;;;;5058136;28;20077;-67
2023/05/05 00:15:06;;;;;;;;;;;15.70;53.70;;;;;;5078749;28;19927;-67
2023/05/05 00:17:32;;;;;;;;;;;15.70;53.80;;;;;;5076445;28;20322;-67
2023/05/05 00:19:58;;;;;;;;;;;15.70;53.70;;;;;;5058371;28;19948;-67
2023/05/05 00:22:24;;;;;;;;;;;15.70;53.70;;;;;;5059184;28;19920;-67
2023/05/05 00:24:49;;;;;;;;;;;15.70;53.70;;;;;;5059480;28;19920;-67
2023/05/05 00:27:15;;;;;;;;;;;15.70;53.70;;;;;;5075992;28;19999;-67
2023/05/05 00:29:40;;;;;;;;;;;15.70;53.80;;;;;;5076630;28;19935;-67
2023/05/05 00:32:06;;;;;;;;;;;15.70;53.80;;;;;;5075351;28;20002;-67
2023/05/05 00:34:31;;;;;;;;;;;15.70;53.80;;;;;;5058865;28;19921;-67
2023/05/05 00:36:57;;;;;;;;;;;15.70;53.80;;;;;;5057357;28;19932;-67
2023/05/05 00:39:23;;;;;;;;;;;15.70;53.80;;;;;;5076803;28;19924;-67
2023/05/05 00:41:48;;;;;;;;;;;15.70;53.80;;;;;;5060671;28;19965;-67
2023/05/05 00:44:14;;;;;;;;;;;15.70;53.80;;;;;;5057306;28;19924;-67
2023/05/05 00:46:40;;;;;;;;;;;15.70;53.80;;;;;;5057902;28;19930;-67
2023/05/05 00:49:06;;;;;;;;;;;15.70;53.90;;;;;;5058593;28;19930;-67
2023/05/05 00:51:31;;;;;;;;;;;15.70;53.90;;;;;;5077508;28;19920;-67
2023/05/05 00:53:57;;;;;;;;;;;15.80;53.90;;;;;;5059433;28;19920;-67
2023/05/05 00:56:26;;;;;;;;;;;15.70;53.90;;;;;;5062247;28;19921;-67
2023/05/05 00:58:51;;;;;;;;;;;15.70;53.90;;;;;;5080593;28;19966;-67
2023/05/05 01:01:17;;;;;;;;;;;15.70;53.90;;;;;;5061312;28;19924;-67
2023/05/05 01:03:42;;;;;;;;;;;15.70;53.90;;;;;;5064722;28;19920;-67
2023/05/05 01:11:34;;;;;;;;;;;15.60;53.90;;;;;;5098302;27;19916;-67
2023/05/05 01:16:47;;;;;;;;;;;15.70;54.00;;;;;;5075937;28;19916;-67
2023/05/05 01:19:19;;;;;;;;;;;15.70;54.00;;;;;;5073638;28;20414;-67
2023/05/05 01:21:48;;;;;;;;;;;15.70;54.00;;;;;;5073878;28;19927;-67
2023/05/05 01:24:25;;;;;;;;;;;15.70;54.00;;;;;;5074246;28;19924;-67
2023/05/05 01:27:10;;;;;;;;;;;15.70;54.00;;;;;;5073440;28;19920;-67
2023/05/05 01:32:24;;;;;;;;;;;15.70;54.00;;;;;;5100189;27;19916;-67
2023/05/05 01:34:54;;;;;;;;;;;15.70;54.00;;;;;;5127401;27;19951;-67
2023/05/05 01:37:21;;;;;;;;;;;15.70;54.00;;;;;;5093613;28;19967;-67
2023/05/05 01:39:50;;;;;;;;;;;15.70;54.00;;;;;;5093659;28;19952;-67
2023/05/05 01:42:17;;;;;;;;;;;15.70;54.10;;;;;;5124417;27;19966;-67
2023/05/05 01:44:43;;;;;;;;;;;15.70;54.10;;;;;;5093644;28;20398;-67
2023/05/05 01:47:11;;;;;;;;;;;15.70;54.10;;;;;;5095179;28;19921;-67
2023/05/05 01:49:37;;;;;;;;;;;15.70;54.10;;;;;;5093374;28;20051;-67
2023/05/05 01:52:03;;;;;;;;;;;15.70;54.10;;;;;;5094713;28;19924;-67
2023/05/05 01:54:30;;;;;;;;;;;15.70;54.10;;;;;;5094399;28;19993;-67
2023/05/05 01:56:57;;;;;;;;;;;15.70;54.10;;;;;;5092846;28;19924;-67
2023/05/05 01:59:24;;;;;;;;;;;15.70;54.10;;;;;;5092312;28;19932;-67
2023/05/05 02:01:50;;;;;;;;;;;15.70;54.10;;;;;;5094061;28;19923;-67
2023/05/05 02:04:17;;;;;;;;;;;15.70;54.10;;;;;;5094642;28;19928;-67
2023/05/05 02:06:44;;;;;;;;;;;15.70;54.00;;;;;;5091204;28;19931;-67
2023/05/05 02:09:10;;;;;;;;;;;15.70;54.10;;;;;;5094250;28;19924;-67
2023/05/05 02:11:37;;;;;;;;;;;15.60;54.00;;;;;;5091175;28;20080;-67
2023/05/05 02:14:04;;;;;;;;;;;15.60;54.00;;;;;;5093105;28;19920;-67
2023/05/05 02:16:30;;;;;;;;;;;15.70;54.10;;;;;;5093345;28;20010;-67
2023/05/05 02:18:57;;;;;;;;;;;15.70;54.10;;;;;;5091772;28;20390;-67
2023/05/05 02:21:22;;;;;;;;;;;15.70;54.10;;;;;;5092108;28;20276;-67
2023/05/05 02:23:50;;;;;;;;;;;15.70;54.10;;;;;;5093748;28;19927;-67
2023/05/05 02:26:17;;;;;;;;;;;15.60;54.00;;;;;;5093160;28;19920;-67
2023/05/05 02:28:47;;;;;;;;;;;15.60;54.10;;;;;;5091906;28;20323;-67
2023/05/05 02:31:14;;;;;;;;;;;15.70;54.10;;;;;;5093149;28;20387;-67
2023/05/05 02:33:41;;;;;;;;;;;15.70;54.10;;;;;;5091639;28;19997;-67
2023/05/05 02:36:11;;;;;;;;;;;15.70;54.10;;;;;;5126296;27;20280;-67
2023/05/05 02:38:39;;;;;;;;;;;15.60;54.00;;;;;;5092183;28;19920;-67
2023/05/05 02:41:06;;;;;;;;;;;15.60;54.10;;;;;;5126875;27;19954;-67
2023/05/05 02:43:32;;;;;;;;;;;15.70;54.10;;;;;;5079272;28;20401;-67
2023/05/05 02:45:58;;;;;;;;;;;15.70;54.10;;;;;;5078805;28;19920;-67
2023/05/05 02:48:23;;;;;;;;;;;15.70;54.10;;;;;;5077802;28;20383;-67
2023/05/05 02:50:49;;;;;;;;;;;15.70;54.10;;;;;;5077968;28;19939;-67
2023/05/05 02:53:15;;;;;;;;;;;15.70;54.10;;;;;;5082053;28;20367;-67
2023/05/05 02:56:00;;;;;;;;;;;15.70;54.10;;;;;;5080224;28;19924;-67
2023/05/05 02:58:29;;;;;;;;;;;15.70;54.10;;;;;;5112519;27;19958;-67
2023/05/05 03:01:03;;;;;;;;;;;15.70;54.10;;;;;;5078858;28;20326;-67
2023/05/05 03:03:37;;;;;;;;;;;15.70;54.10;;;;;;5078669;28;19974;-67
2023/05/05 03:06:22;;;;;;;;;;;15.60;54.00;;;;;;5112698;27;19969;-67
2023/05/05 03:08:57;;;;;;;;;;;15.70;54.10;;;;;;5111662;27;20384;-67
2023/05/05 03:11:26;;;;;;;;;;;15.60;54.00;;;;;;5112365;27;19947;-67
2023/05/05 03:14:00;;;;;;;;;;;15.60;54.00;;;;;;5079944;28;19920;-67
2023/05/05 03:16:26;;;;;;;;;;;15.60;54.00;;;;;;5070658;28;19920;-67
2023/05/05 03:18:52;;;;;;;;;;;15.60;54.00;;;;;;5111747;27;19971;-67
2023/05/05 03:21:18;;;;;;;;;;;15.60;54.00;;;;;;5111389;27;19927;-67
2023/05/05 03:23:44;;;;;;;;;;;15.60;54.00;;;;;;5079830;28;19920;-67
2023/05/05 03:26:09;;;;;;;;;;;15.60;54.00;;;;;;5076376;28;19928;-67
2023/05/05 03:28:35;;;;;;;;;;;15.70;54.10;;;;;;5078474;28;19927;-67
2023/05/05 03:31:01;;;;;;;;;;;15.60;54.10;;;;;;5112971;27;20357;-67
2023/05/05 03:33:26;;;;;;;;;;;15.60;54.00;;;;;;5078014;28;19928;-67
2023/05/05 03:35:52;;;;;;;;;;;15.60;54.00;;;;;;5078185;28;19925;-67
2023/05/05 03:38:17;;;;;;;;;;;15.60;54.10;;;;;;5078206;28;20310;-67
2023/05/05 03:40:43;;;;;;;;;;;15.60;54.00;;;;;;5079371;28;20406;-67
2023/05/05 03:43:08;;;;;;;;;;;15.60;54.00;;;;;;5078638;28;20035;-67
2023/05/05 03:45:34;;;;;;;;;;;15.60;54.10;;;;;;5076460;28;20015;-67
2023/05/05 03:47:59;;;;;;;;;;;15.60;54.00;;;;;;5076982;28;19924;-67
2023/05/05 03:50:25;;;;;;;;;;;15.60;54.00;;;;;;5078428;28;19983;-67
2023/05/05 03:52:50;;;;;;;;;;;15.60;54.70;;;;;;5080499;28;19928;-67
2023/05/05 03:55:16;;;;;;;;;;;15.60;54.00;;;;;;5077202;28;19920;-67
2023/05/05 03:57:41;;;;;;;;;;;15.60;54.00;;;;;;5077992;28;19920;-67
2023/05/05 04:00:10;;;;;;;;;;;15.70;54.10;;;;;;5076491;28;19920;-67
2023/05/05 04:02:36;;;;;;;;;;;15.60;54.10;;;;;;5077779;28;20295;-67
2023/05/05 04:05:01;;;;;;;;;;;15.60;54.10;;;;;;5078284;28;19924;-67
2023/05/05 04:07:27;;;;;;;;;;;15.60;54.10;;;;;;5075815;28;19927;-67
2023/05/05 04:09:52;;;;;;;;;;;15.60;54.10;;;;;;5077736;28;19984;-67
2023/05/05 04:12:18;;;;;;;;;;;15.60;54.10;;;;;;5078771;28;19963;-67
2023/05/05 04:14:43;;;;;;;;;;;15.60;54.10;;;;;;5076741;28;19920;-67
2023/05/05 04:17:08;;;;;;;;;;;15.60;54.10;;;;;;5111116;27;19963;-67
2023/05/05 04:19:34;;;;;;;;;;;15.60;54.10;;;;;;5078351;28;19921;-67
2023/05/05 04:22:00;;;;;;;;;;;15.60;54.10;;;;;;5077381;28;19924;-67
2023/05/05 04:24:25;;;;;;;;;;;15.60;54.10;;;;;;5078413;28;19969;-67
2023/05/05 04:26:51;;;;;;;;;;;15.60;54.10;;;;;;5075690;28;19935;-67
2023/05/05 04:29:17;;;;;;;;;;;15.60;54.20;;;;;;5076039;28;19920;-67
2023/05/05 04:31:42;;;;;;;;;;;15.60;54.20;;;;;;5075400;28;19939;-67
2023/05/05 04:34:08;;;;;;;;;;;15.60;54.20;;;;;;5075700;28;19925;-68
2023/05/05 04:36:33;;;;;;;;;;;15.60;54.20;;;;;;5077643;28;20042;-67
2023/05/05 04:38:59;;;;;;;;;;;15.60;54.20;;;;;;5093139;28;20007;-67
2023/05/05 04:41:25;;;;;;;;;;;15.60;54.20;;;;;;5075711;28;19938;-67
2023/05/05 04:43:51;;;;;;;;;;;15.60;54.20;;;;;;5076588;28;19927;-67
2023/05/05 04:46:17;;;;;;;;;;;15.60;54.20;;;;;;5078182;28;19920;-67
2023/05/05 04:48:42;;;;;;;;;;;15.60;54.20;;;;;;5078355;28;20273;-67
2023/05/05 04:51:08;;;;;;;;;;;15.60;54.20;;;;;;5075669;28;20360;-67
2023/05/05 04:53:33;;;;;;;;;;;15.60;54.20;;;;;;5078274;28;19920;-67
2023/05/05 04:56:00;;;;;;;;;;;15.60;54.30;;;;;;5075165;28;20002;-67
2023/05/05 04:58:25;;;;;;;;;;;15.60;54.20;;;;;;5077839;28;20322;-67
2023/05/05 05:00:51;;;;;;;;;;;15.60;54.20;;;;;;5076396;28;19920;-67
2023/05/05 05:03:16;;;;;;;;;;;15.60;54.30;;;;;;5077043;28;19920;-67
2023/05/05 05:05:42;;;;;;;;;;;15.50;54.20;;;;;;5076637;28;20292;-67
2023/05/05 05:08:07;;;;;;;;;;;15.60;54.30;;;;;;5079146;28;20003;-67
2023/05/05 05:10:34;;;;;;;;;;;15.60;54.30;;;;;;5109157;27;19981;-67
2023/05/05 05:12:59;;;;;;;;;;;15.60;54.30;;;;;;5075506;28;20268;-67
2023/05/05 05:15:25;;;;;;;;;;;15.60;54.30;;;;;;5077785;28;20380;-67
2023/05/05 05:17:50;;;;;;;;;;;15.50;54.20;;;;;;5076481;28;19973;-67
2023/05/05 05:20:16;;;;;;;;;;;15.60;54.30;;;;;;5076627;28;20264;-67
2023/05/05 05:22:41;;;;;;;;;;;15.60;54.30;;;;;;5112824;27;19952;-67
2023/05/05 05:25:07;;;;;;;;;;;15.60;54.30;;;;;;5108414;28;19920;-67
2023/05/05 05:27:32;;;;;;;;;;;15.60;54.40;;;;;;5076409;28;19946;-67
2023/05/05 05:29:58;;;;;;;;;;;15.60;54.40;;;;;;5076906;28;19920;-67
2023/05/05 05:32:23;;;;;;;;;;;15.50;54.30;;;;;;5078353;28;20390;-67
2023/05/05 05:34:49;;;;;;;;;;;15.60;54.40;;;;;;5078471;28;19939;-67
2023/05/05 05:37:14;;;;;;;;;;;15.60;54.40;;;;;;5079105;28;19927;-67
2023/05/05 05:39:40;;;;;;;;;;;15.60;54.40;;;;;;5096477;28;20447;-67
2023/05/05 05:42:05;;;;;;;;;;;15.50;54.30;;;;;;5078648;28;19920;-67
2023/05/05 05:44:31;;;;;;;;;;;15.60;54.40;;;;;;5080689;28;19963;-67
2023/05/05 05:46:57;;;;;;;;;;;15.50;54.40;;;;;;5079237;28;20015;-67
2023/05/05 05:49:22;;;;;;;;;;;15.50;54.40;;;;;;5078614;28;19955;-67
2023/05/05 05:51:48;;;;;;;;;;;15.60;54.50;;;;;;5099381;28;19927;-67
2023/05/05 05:54:13;;;;;;;;;;;15.60;54.50;;;;;;5096075;28;19924;-67
2023/05/05 05:56:39;;;;;;;;;;;15.60;54.50;;;;;;5078610;28;19934;-67
2023/05/05 05:59:06;;;;;;;;;;;15.60;54.50;;;;;;5098557;28;19924;-67
2023/05/05 06:01:33;;;;;;;;;;;15.50;54.50;;;;;;5076951;28;19928;-68
2023/05/05 06:03:58;;;;;;;;;;;15.50;54.40;;;;;;5078128;28;20173;-67
2023/05/05 06:06:24;;;;;;;;;;;15.50;54.50;;;;;;5097149;28;19924;-67
2023/05/05 06:08:49;;;;;;;;;;;15.60;54.60;;;;;;5097084;28;19935;-67
2023/05/05 06:11:15;;;;;;;;;;;15.50;54.60;;;;;;5097402;28;19920;-67
2023/05/05 06:13:40;;;;;;;;;;;15.50;54.60;;;;;;5096470;28;20023;-67
2023/05/05 06:16:06;;;;;;;;;;;15.50;54.70;;;;;;5078300;28;19943;-67
2023/05/05 06:18:32;;;;;;;;;;;15.50;54.60;;;;;;5081223;28;19974;-67
2023/05/05 06:20:57;;;;;;;;;;;15.50;54.60;;;;;;5115935;27;19924;-68
2023/05/05 06:23:23;;;;;;;;;;;15.50;55.30;;;;;;5081960;28;19920;-67
2023/05/05 06:25:49;;;;;;;;;;;15.50;54.70;;;;;;5117691;27;19923;-67
2023/05/05 06:28:15;;;;;;;;;;;15.50;54.60;;;;;;5100429;28;19930;-68
2023/05/05 06:30:43;;;;;;;;;;;15.50;54.60;;;;;;5080963;28;19928;-67
2023/05/05 06:33:09;;;;;;;;;;;15.60;54.70;;;;;;5082363;28;19940;-67
2023/05/05 06:35:34;;;;;;;;;;;15.60;54.70;;;;;;5116480;27;20390;-67
2023/05/05 06:38:00;;;;;;;;;;;15.50;54.70;;;;;;5101028;28;19920;-67
2023/05/05 06:40:25;;;;;;;;;;;15.50;54.70;;;;;;5115416;27;19920;-67
2023/05/05 06:42:51;;;;;;;;;;;15.50;54.70;;;;;;5099740;28;19920;-67
2023/05/05 06:45:17;;;;;;;;;;;15.50;54.70;;;;;;5099974;28;19949;-67
2023/05/05 06:47:43;;;;;;;;;;;15.50;54.70;;;;;;5081248;28;19970;-67
2023/05/05 06:50:08;;;;;;;;;;;15.50;54.70;;;;;;5081184;28;19927;-67
2023/05/05 06:52:34;;;;;;;;;;;15.60;54.80;;;;;;5086673;28;19920;-67
2023/05/05 06:54:59;;;;;;;;;;;15.50;54.70;;;;;;5100119;28;20292;-67
2023/05/05 06:57:25;;;;;;;;;;;15.50;54.70;;;;;;5101835;28;19919;-67
2023/05/05 06:59:51;;;;;;;;;;;15.50;54.70;;;;;;5081188;28;19920;-67
2023/05/05 07:02:16;;;;;;;;;;;15.50;54.70;;;;;;5083666;28;19942;-67
2023/05/05 07:04:42;;;;;;;;;;;15.50;54.70;;;;;;5100908;28;19924;-67
2023/05/05 07:07:08;;;;;;;;;;;15.50;54.70;;;;;;5096129;28;20489;-67
2023/05/05 07:09:33;;;;;;;;;;;15.60;54.80;;;;;;5100126;28;19919;-67
2023/05/05 07:11:59;;;;;;;;;;;15.60;54.80;;;;;;5083369;28;19976;-67
2023/05/05 07:14:25;;;;;;;;;;;15.60;54.80;;;;;;5114263;27;19935;-67
2023/05/05 07:16:50;;;;;;;;;;;15.50;54.70;;;;;;5099879;28;19935;-67
2023/05/05 07:19:16;;;;;;;;;;;15.60;54.80;;;;;;5099732;28;19920;-67
2023/05/05 07:21:41;;;;;;;;;;;15.60;54.80;;;;;;5081957;28;20408;-67
2023/05/05 07:24:07;;;;;;;;;;;15.60;54.80;;;;;;5115446;27;19926;-67
2023/05/05 07:26:32;;;;;;;;;;;15.50;54.80;;;;;;5079929;28;20345;-67
2023/05/05 07:28:58;;;;;;;;;;;15.60;54.80;;;;;;5080789;28;20323;-67
2023/05/05 07:31:24;;;;;;;;;;;15.60;54.80;;;;;;5098918;28;20011;-67
2023/05/05 07:33:50;;;;;;;;;;;15.50;54.70;;;;;;5099207;28;19967;-64
2023/05/05 07:36:16;;;;;;;;;;;15.50;54.70;;;;;;5079806;28;20426;-63
2023/05/05 07:38:42;;;;;;;;;;;15.60;55.40;;;;;;5094216;28;19920;-64
2023/05/05 07:41:10;;;;;;;;;;;15.60;55.80;;;;;;5114675;27;20382;-64
2023/05/05 07:43:36;;;;;;;;;;;15.80;56.40;;;;;;5116295;27;20379;-64
2023/05/05 07:46:01;;;;;;;;;;;15.80;56.80;;;;;;5082104;28;19953;-64
2023/05/05 07:48:27;;;;;;;;;;;15.90;57.10;;;;;;5112731;27;19919;-64
2023/05/05 07:50:53;;;;;;;;;;;16.00;57.30;;;;;;5079758;28;19924;-64
2023/05/05 07:53:19;;;;;;;;;;;16.10;57.20;;;;;;5099824;28;19920;-64
2023/05/05 07:55:45;;;;;;;;;;;16.10;57.20;;;;;;5098596;28;19946;-63
2023/05/05 07:58:10;;;;;;;;;;;16.10;57.30;;;;;;5080300;28;19973;-63
2023/05/05 08:00:36;;;;;;;;;;;16.20;57.30;;;;;;5078210;28;19920;-64
2023/05/05 08:03:02;;;;;;;;;;;16.20;57.40;;;;;;5079927;28;19920;-63
2023/05/05 08:05:27;;;;;;;;;;;16.30;57.50;;;;;;5097800;28;19928;-64
2023/05/05 08:07:52;;;;;;;;;;;16.30;57.60;;;;;;5079924;28;19920;-64
2023/05/05 08:10:20;;;;;;;;;;;16.40;57.70;;;;;;5079239;28;20406;-63
2023/05/05 08:12:46;;;;;;;;;;;16.40;57.60;;;;;;5096047;28;20028;-64
2023/05/05 08:15:11;;;;;;;;;;;16.40;57.70;;;;;;5114995;27;20084;-63
2023/05/05 08:17:42;;;;;;;;;;;16.50;57.80;;;;;;5080403;28;19920;-62
2023/05/05 08:20:08;;;;;;;;;;;16.50;57.90;;;;;;5097713;28;20320;-62
2023/05/05 08:22:33;;;;;;;;;;;16.50;57.80;;;;;;5079586;28;19926;-63
2023/05/05 08:24:59;;;;;;;;;;;16.50;57.90;;;;;;5114214;27;19920;-62
2023/05/05 08:27:24;;;;;;;;;;;16.60;57.90;;;;;;5095594;28;19920;-64
2023/05/05 08:29:50;;;;;;;;;;;16.60;57.90;;;;;;5112324;27;19920;-63
2023/05/05 08:32:15;;;;;;;;;;;16.60;57.90;;;;;;5110569;27;20433;-64
2023/05/05 08:34:41;;;;;;;;;;;16.60;57.90;;;;;;5095631;28;19920;-63
2023/05/05 08:37:06;;;;;;;;;;;16.70;58.00;;;;;;5079793;28;19927;-63
2023/05/05 08:39:32;;;;;;;;;;;16.70;58.00;;;;;;5077472;28;20018;-64
2023/05/05 08:41:58;;;;;;;;;;;16.70;58.00;;;;;;5095370;28;20462;-63
2023/05/05 08:44:25;;;;;;;;;;;16.70;58.00;;;;;;5080980;28;20395;-63
2023/05/05 08:46:51;;;;;;;;;;;16.70;58.80;;;;;;5076874;28;19986;-63
2023/05/05 08:49:17;;;;;;;;;;;16.80;58.10;;;;;;5098165;28;20018;-63
2023/05/05 08:51:44;;;;;;;;;;;16.80;58.30;;;;;;5076009;28;20011;-68
2023/05/05 08:54:14;;;;;;;;;;;16.80;58.50;;;;;;5094668;28;19989;-69
2023/05/05 08:56:40;;;;;;;;;;;16.80;58.70;;;;;;5092473;28;19963;-68
2023/05/05 08:59:07;;;;;;;;;;;16.80;58.80;;;;;;5079711;28;20326;-68
2023/05/05 09:01:33;;;;;;;;;;;16.70;58.90;;;;;;5097056;28;20003;-68
2023/05/05 09:03:59;;;;;;;;;;;16.70;59.00;;;;;;5077490;28;19969;-69
2023/05/05 09:06:26;;;;;;;;;;;16.60;59.70;;;;;;5079634;28;20015;-69
2023/05/05 09:08:52;;;;;;;;;;;16.60;59.10;;;;;;5094603;28;20275;-68
2023/05/05 09:11:17;;;;;;;;;;;16.60;59.10;;;;;;5097789;28;19969;-69
2023/05/05 09:13:43;;;;;;;;;;;16.50;59.00;;;;;;5112707;27;19928;-69
2023/05/05 09:16:08;;;;;;;;;;;16.50;58.90;;;;;;5078515;28;20363;-69
2023/05/05 09:18:36;;;;;;;;;;;16.50;58.90;;;;;;5097081;28;19920;-69
2023/05/05 09:21:17;;;;;;;;;;;16.50;58.90;;;;;;5081192;28;19926;-69
2023/05/05 09:24:02;;;;;;;;;;;16.50;59.60;;;;;;5094825;28;19920;-69
2023/05/05 09:26:29;;;;;;;;;;;16.40;58.80;;;;;;5077578;28;20376;-69
2023/05/05 09:28:55;;;;;;;;;;;16.40;58.80;;;;;;5110384;27;19945;-69
2023/05/05 09:31:20;;;;;;;;;;;16.40;58.80;;;;;;5096968;28;19956;-68
2023/05/05 09:33:46;;;;;;;;;;;16.40;58.70;;;;;;5081088;28;19920;-68
2023/05/05 09:36:11;;;;;;;;;;;16.40;58.70;;;;;;5111348;28;19926;-68
2023/05/05 09:38:37;;;;;;;;;;;16.40;58.70;;;;;;5107417;28;19920;-68
2023/05/05 09:41:04;;;;;;;;;;;16.40;58.60;;;;;;5070731;28;19928;-68
2023/05/05 09:43:47;;;;;;;;;;;16.30;58.50;;;;;;5114459;27;20414;-68
2023/05/05 09:46:13;;;;;;;;;;;16.40;58.50;;;;;;5107288;28;20413;-68
2023/05/05 09:48:38;;;;;;;;;;;16.40;58.40;;;;;;5070936;28;19920;-69
2023/05/05 09:51:03;;;;;;;;;;;16.30;58.40;;;;;;5109608;28;19924;-68
2023/05/05 09:53:38;;;;;;;;;;;16.30;58.40;;;;;;5083550;28;19990;-68
2023/05/05 09:56:03;;;;;;;;;;;16.40;58.40;;;;;;5084448;28;19923;-68
2023/05/05 09:58:29;;;;;;;;;;;16.30;58.30;;;;;;5081243;28;20090;-69
2023/05/05 10:00:56;;;;;;;;;;;16.30;58.30;;;;;;5077296;28;19924;-69
2023/05/05 10:03:21;;;;;;;;;;;16.30;58.30;;;;;;5114149;27;19965;-69
2023/05/05 10:08:32;;;;;;;;;;;16.30;58.30;;;;;;5112669;27;19917;-69
2023/05/05 10:10:59;;;;;;;;;;;16.30;58.20;;;;;;5110399;28;20005;-68
2023/05/05 10:13:25;;;;;;;;;;;16.30;58.20;;;;;;5106513;28;19920;-68
2023/05/05 10:15:52;;;;;;;;;;;16.30;58.30;;;;;;5113391;28;19973;-69
2023/05/05 10:18:19;;;;;;;;;;;16.30;58.20;;;;;;5104748;28;19927;-69
2023/05/05 10:20:46;;;;;;;;;;;16.30;58.20;;;;;;5115694;28;20307;-69
2023/05/05 10:23:15;;;;;;;;;;;16.20;58.10;;;;;;5117928;27;19924;-69
2023/05/05 10:25:44;;;;;;;;;;;16.30;58.10;;;;;;5103096;28;19920;-69
2023/05/05 10:28:15;;;;;;;;;;;16.30;58.10;;;;;;5113145;27;20271;-69
2023/05/05 10:30:42;;;;;;;;;;;16.30;58.00;;;;;;5112746;28;20278;-69
2023/05/05 10:33:11;;;;;;;;;;;16.20;57.90;;;;;;5113136;28;20380;-69
2023/05/05 10:35:39;;;;;;;;;;;16.30;58.00;;;;;;5105529;28;19924;-69
2023/05/05 10:38:07;;;;;;;;;;;16.30;57.90;;;;;;5111229;28;20276;-68
2023/05/05 10:40:32;;;;;;;;;;;16.20;57.90;;;;;;5110093;28;20379;-69
2023/05/05 10:42:58;;;;;;;;;;;16.30;57.90;;;;;;5110960;28;19920;-68
2023/05/05 10:45:24;;;;;;;;;;;16.30;57.90;;;;;;5120508;28;19934;-68
2023/05/05 10:47:50;;;;;;;;;;;16.30;58.70;;;;;;5114615;27;20317;-68
2023/05/05 10:50:24;;;;;;;;;;;16.30;58.00;;;;;;5112366;28;20016;-68
2023/05/05 10:53:02;;;;;;;;;;;16.30;57.90;;;;;;5110584;28;19920;-68
2023/05/05 10:58:32;;;;;;;;;;;16.30;57.90;;;;;;5093661;27;19916;-68
2023/05/05 11:00:58;;;;;;;;;;;16.30;57.90;;;;;;5094101;28;20391;-67
2023/05/05 11:03:23;;;;;;;;;;;16.30;57.90;;;;;;5090067;28;19925;-68
2023/05/05 11:08:45;;;;;;;;;;;16.30;57.90;;;;;;5081449;28;20272;-67
2023/05/05 11:11:11;;;;;;;;;;;16.30;57.90;;;;;;5064897;28;19920;-68
2023/05/05 11:13:37;;;;;;;;;;;16.30;57.90;;;;;;5061701;28;20004;-67
2023/05/05 11:16:04;;;;;;;;;;;16.30;57.90;;;;;;5062959;28;19982;-68
2023/05/05 11:18:34;;;;;;;;;;;16.30;57.90;;;;;;5081855;28;20435;-67
2023/05/05 11:23:42;;;;;;;;;;;16.30;57.90;;;;;;5072631;28;19923;-67
2023/05/05 11:26:08;;;;;;;;;;;16.30;57.90;;;;;;5065267;28;19924;-67
2023/05/05 11:28:53;;;;;;;;;;;16.30;57.90;;;;;;5063301;28;20304;-68
2023/05/05 11:31:19;;;;;;;;;;;16.30;57.90;;;;;;5064248;28;19927;-67
2023/05/05 11:33:44;;;;;;;;;;;16.30;57.90;;;;;;5077029;28;19925;-67
2023/05/05 11:36:14;;;;;;;;;;;16.30;57.80;;;;;;5062737;28;19970;-67
2023/05/05 11:38:59;;;;;;;;;;;16.30;57.80;;;;;;5065008;28;20416;-67
2023/05/05 11:44:13;;;;;;;;;;;16.30;57.80;;;;;;5075754;28;20306;-67
2023/05/05 11:46:59;;;;;;;;;;;16.30;57.80;;;;;;5072661;28;20392;-67
2023/05/05 11:52:08;;;;;;;;;;;16.30;57.80;;;;;;5087039;27;19927;-67
2023/05/05 11:54:34;;;;;;;;;;;16.30;57.80;;;;;;5085037;28;20256;-67
2023/05/05 11:57:03;;;;;;;;;;;16.30;57.80;;;;;;5118677;28;19973;-67
2023/05/05 11:59:30;;;;;;;;;;;16.30;57.80;;;;;;5077692;28;19925;-67
2023/05/05 12:01:55;;;;;;;;;;;16.30;57.70;;;;;;5080247;28;19982;-68
2023/05/05 12:04:21;;;;;;;;;;;16.30;57.70;;;;;;5077411;28;19921;-67
2023/05/05 12:06:47;;;;;;;;;;;16.30;57.70;;;;;;5076990;28;19920;-67
2023/05/05 12:09:14;;;;;;;;;;;16.30;57.70;;;;;;5078097;28;20335;-68
2023/05/05 12:11:47;;;;;;;;;;;16.30;57.70;;;;;;5077398;28;20444;-67
2023/05/05 12:14:13;;;;;;;;;;;16.30;57.70;;;;;;5076357;28;20376;-67
2023/05/05 12:16:38;;;;;;;;;;;16.30;57.70;;;;;;5076352;28;19925;-67
2023/05/05 12:19:05;;;;;;;;;;;16.30;57.70;;;;;;5077287;28;20288;-68
2023/05/05 12:21:31;;;;;;;;;;;16.30;57.60;;;;;;5079591;28;19924;-67
2023/05/05 12:23:56;;;;;;;;;;;16.30;57.60;;;;;;5079037;28;19920;-68
2023/05/05 12:29:02;;;;;;;;;;;16.30;57.60;;;;;;5101891;27;19916;-67
2023/05/05 12:31:43;;;;;;;;;;;16.30;57.60;;;;;;5086688;28;19931;-67
2023/05/05 12:34:09;;;;;;;;;;;16.30;57.60;;;;;;5087305;28;20394;-67
2023/05/05 12:36:35;;;;;;;;;;;16.30;57.60;;;;;;5118752;28;19931;-68
2023/05/05 12:39:01;;;;;;;;;;;16.30;57.60;;;;;;5120586;28;19925;-68
2023/05/05 12:41:27;;;;;;;;;;;16.30;57.60;;;;;;5086787;28;19927;-67
2023/05/05 12:43:55;;;;;;;;;;;16.30;57.60;;;;;;5084466;28;19920;-67
2023/05/05 12:46:21;;;;;;;;;;;16.30;57.60;;;;;;5083704;28;19976;-67
2023/05/05 12:48:57;;;;;;;;;;;16.40;57.60;;;;;;5074687;28;19963;-67
2023/05/05 12:51:23;;;;;;;;;;;16.40;57.60;;;;;;5112763;28;20235;-67
2023/05/05 12:54:01;;;;;;;;;;;16.30;57.60;;;;;;5115632;28;19924;-67
2023/05/05 12:56:28;;;;;;;;;;;16.40;57.60;;;;;;5083517;28;19931;-67
2023/05/05 12:58:54;;;;;;;;;;;16.40;57.70;;;;;;5083921;28;20280;-67
2023/05/05 13:01:20;;;;;;;;;;;16.30;57.70;;;;;;5081742;28;19927;-67
2023/05/05 13:03:45;;;;;;;;;;;16.40;57.80;;;;;;5079196;28;20400;-67
2023/05/05 13:06:19;;;;;;;;;;;16.40;57.90;;;;;;5084945;28;20394;-67
2023/05/05 13:08:45;;;;;;;;;;;16.40;58.00;;;;;;5081565;28;19934;-67
2023/05/05 13:11:11;;;;;;;;;;;16.40;58.00;;;;;;5078146;28;19925;-68
2023/05/05 13:13:36;;;;;;;;;;;16.40;58.10;;;;;;5082394;28;19935;-68
2023/05/05 13:16:02;;;;;;;;;;;16.40;58.20;;;;;;5119163;28;20931;-68
2023/05/05 13:18:27;;;;;;;;;;;16.40;58.20;;;;;;5109113;28;19928;-68
2023/05/05 13:20:52;;;;;;;;;;;16.40;58.30;;;;;;5084442;28;20296;-68
2023/05/05 13:23:18;;;;;;;;;;;16.40;58.30;;;;;;5113963;28;20014;-67
2023/05/05 13:25:44;;;;;;;;;;;16.40;58.40;;;;;;5083073;28;20403;-67
2023/05/05 13:28:09;;;;;;;;;;;16.40;58.40;;;;;;5116585;28;20394;-68
2023/05/05 13:30:35;;;;;;;;;;;16.40;58.40;;;;;;5084965;28;19951;-68
2023/05/05 13:33:02;;;;;;;;;;;16.40;58.50;;;;;;5074023;28;20351;-67
2023/05/05 13:35:27;;;;;;;;;;;16.40;58.50;;;;;;5086225;28;20015;-68
2023/05/05 13:37:52;;;;;;;;;;;16.40;58.50;;;;;;5085481;28;20003;-67
2023/05/05 13:40:18;;;;;;;;;;;16.40;58.60;;;;;;5073145;28;19930;-68
2023/05/05 13:42:43;;;;;;;;;;;16.40;58.70;;;;;;5073163;28;20407;-68
2023/05/05 13:45:09;;;;;;;;;;;16.40;58.70;;;;;;5072390;28;19990;-68
2023/05/05 13:47:35;;;;;;;;;;;16.40;58.80;;;;;;5073723;28;20338;-68
2023/05/05 13:50:00;;;;;;;;;;;16.40;58.80;;;;;;5073469;28;20430;-67
2023/05/05 13:52:26;;;;;;;;;;;16.40;58.80;;;;;;5106154;28;20014;-67
2023/05/05 13:54:51;;;;;;;;;;;16.40;58.80;;;;;;5072059;28;19931;-67
2023/05/05 13:57:17;;;;;;;;;;;16.40;58.80;;;;;;5072409;28;20279;-67
2023/05/05 13:59:42;;;;;;;;;;;16.40;58.80;;;;;;5106284;28;19920;-68
2023/05/05 14:02:08;;;;;;;;;;;16.40;58.80;;;;;;5072489;28;19935;-68
2023/05/05 14:04:33;;;;;;;;;;;16.40;58.80;;;;;;5075738;28;19964;-68
2023/05/05 14:06:59;;;;;;;;;;;16.40;58.80;;;;;;5072191;28;19978;-68
2023/05/05 14:09:25;;;;;;;;;;;16.50;58.80;;;;;;5073271;28;19925;-67
2023/05/05 14:11:50;;;;;;;;;;;16.40;58.80;;;;;;5073015;28;20385;-68
2023/05/05 14:14:16;;;;;;;;;;;16.40;58.80;;;;;;5073144;28;20292;-68
2023/05/05 14:16:42;;;;;;;;;;;16.50;58.90;;;;;;5070102;28;19920;-68
2023/05/05 14:19:07;;;;;;;;;;;16.50;58.90;;;;;;5073203;28;19946;-68
2023/05/05 14:21:33;;;;;;;;;;;16.50;58.90;;;;;;5073479;28;19924;-68
2023/05/05 14:23:58;;;;;;;;;;;16.40;58.90;;;;;;5072996;28;19920;-68
2023/05/05 14:26:24;;;;;;;;;;;16.50;59.00;;;;;;5071580;28;20152;-68
2023/05/05 14:28:50;;;;;;;;;;;16.50;59.00;;;;;;5071308;28;19924;-69
2023/05/05 14:31:16;;;;;;;;;;;16.40;59.00;;;;;;5072614;28;19925;-68
2023/05/05 14:33:41;;;;;;;;;;;16.50;59.00;;;;;;5073024;28;19927;-68
2023/05/05 14:36:07;;;;;;;;;;;16.50;59.00;;;;;;5071261;28;19995;-68
2023/05/05 14:38:33;;;;;;;;;;;16.50;59.00;;;;;;5071459;28;19921;-67
2023/05/05 14:40:58;;;;;;;;;;;16.50;59.00;;;;;;5073469;28;19920;-67
2023/05/05 14:43:24;;;;;;;;;;;16.50;59.00;;;;;;5070387;28;19930;-68